Terminal Aerodrome Forecast
Issued by NWS

Home | Current Version | Previous Version | Text Only | Print | Product List | Glossary On
Versions: 1 2 3 4 5 6 7 8 9 10 11 12 13 14 15 16 17 18 19 20 21 22 23 24 25
972
FTUS42 KGSP 222207 AAB
TAFAND
TAF AMD
KAND 222207Z 2222/2318 08010KT P6SM OVC014
      TEMPO 2222/2302 3SM TSRA BR OVC007CB
     FM230200 17013G20KT 3SM SHRA BR VCTS OVC007CB
      TEMPO 2302/2305 2SM TSRA OVC003CB
     FM230700 20010G18KT 3SM SHRA OVC008
     FM230900 18010KT 1SM -SHRA BR OVC003
     FM231500 28008KT P6SM BKN010=

USA.gov is the U.S. government's official web portal to all federal, state and local government web resources and services.